Time;durP1;ratioP1;P1;durP2;ratioP2;P2;SDS_P1;SDS_P2;PMS_P1;PMS_P2;Temp;Humidity;BMP_temperature;BMP_pressure;BME280_temperature;BME280_humidity;BME280_pressure;Samples;Min_cycle;Max_cycle;Signal;HPM_P1;HPM_P2
2021/04/13 00:01:11;;;;;;;0.20;0.10;;;;;;;11.73;65.71;101269.22;4993412;28;20058;-63
2021/04/13 00:03:53;;;;;;;0.70;0.20;;;;;;;11.70;65.57;101274.63;4991297;28;20069;-64
2021/04/13 00:06:25;;;;;;;0.70;0.20;;;;;;;11.68;65.69;101273.88;4990143;28;20397;-63
2021/04/13 00:08:57;;;;;;;0.98;0.20;;;;;;;11.65;65.74;101276.66;4987146;28;20046;-63
2021/04/13 00:11:25;;;;;;;0.98;0.20;;;;;;;11.65;65.84;101284.56;4993048;28;20050;-63
2021/04/13 00:13:55;;;;;;;0.20;0.20;;;;;;;11.64;66.10;101281.06;4993354;28;20104;-66
2021/04/13 00:16:27;;;;;;;0.43;0.30;;;;;;;11.64;66.16;101280.22;4993083;28;20046;-65
2021/04/13 00:18:54;;;;;;;0.47;0.35;;;;;;;11.63;66.41;101287.28;4980117;28;20529;-63
2021/04/13 00:21:28;;;;;;;1.45;0.40;;;;;;;11.62;66.69;101289.94;4982066;28;20105;-62
2021/04/13 00:23:56;;;;;;;0.57;0.30;;;;;;;11.59;66.85;101286.56;4992868;28;20491;-63
2021/04/13 00:26:26;;;;;;;2.30;0.40;;;;;;;11.58;67.15;101286.66;4992928;28;20046;-63
2021/04/13 00:28:54;;;;;;;1.48;0.30;;;;;;;11.57;67.39;101282.31;4991868;28;20061;-64
2021/04/13 00:31:45;;;;;;;0.60;0.28;;;;;;;11.55;67.55;101285.03;4992861;28;20129;-64
2021/04/13 00:34:17;;;;;;;1.17;0.30;;;;;;;11.56;67.90;101286.72;4979853;28;20399;-63
2021/04/13 00:36:44;;;;;;;1.65;0.57;;;;;;;11.57;68.17;101290.22;4992158;28;20084;-64
2021/04/13 00:39:25;;;;;;;0.43;0.20;;;;;;;11.55;68.45;101287.66;4992316;28;20550;-64
2021/04/13 00:42:12;;;;;;;0.47;0.40;;;;;;;11.55;68.76;101290.31;4990548;28;20058;-64
2021/04/13 00:44:51;;;;;;;1.38;0.65;;;;;;;11.51;69.02;101301.88;4991285;28;20163;-65
2021/04/13 00:47:25;;;;;;;2.05;0.70;;;;;;;11.48;69.24;101302.06;4988541;28;20042;-63
2021/04/13 00:49:56;;;;;;;1.10;0.80;;;;;;;11.47;69.25;101302.13;4992824;28;20061;-63
2021/04/13 00:52:34;;;;;;;0.70;0.50;;;;;;;11.45;69.31;101302.19;4992725;28;20046;-63
2021/04/13 00:55:04;;;;;;;2.10;0.60;;;;;;;11.42;69.48;101302.38;4984109;28;20104;-64
2021/04/13 00:57:38;;;;;;;0.85;0.50;;;;;;;11.40;69.84;101302.44;4992772;28;20076;-63
2021/04/13 01:00:07;;;;;;;1.45;0.60;;;;;;;11.39;70.06;101299.91;4992303;28;20054;-64
2021/04/13 01:02:34;;;;;;;0.73;0.40;;;;;;;11.39;70.44;101300.75;4992597;28;20049;-64
2021/04/13 01:05:21;;;;;;;0.70;0.50;;;;;;;11.39;70.57;101306.00;4992529;28;20042;-64
2021/04/13 01:07:53;;;;;;;1.58;0.70;;;;;;;11.39;70.73;101310.41;4992393;28;20108;-65
2021/04/13 01:10:33;;;;;;;0.80;0.50;;;;;;;11.38;70.93;101313.97;4987408;28;20050;-63
2021/04/13 01:13:09;;;;;;;0.63;0.50;;;;;;;11.36;71.03;101307.94;4986760;28;20101;-63
2021/04/13 01:15:38;;;;;;;1.48;0.90;;;;;;;11.35;71.15;101314.97;4992809;28;20053;-64
2021/04/13 01:18:07;;;;;;;1.23;0.70;;;;;;;11.34;71.41;101321.16;4992530;28;20491;-63
2021/04/13 01:21:04;;;;;;;1.83;0.40;;;;;;;11.34;71.24;101326.41;4992607;28;20046;-63
2021/04/13 01:24:00;;;;;;;;;;;;;;;11.32;71.27;101330.03;4991613;28;20583;-63
2021/04/13 01:26:32;;;;;;;0.30;0.28;;;;;;;11.28;71.03;101340.69;4988143;28;20375;-64
2021/04/13 01:28:59;;;;;;;1.55;0.50;;;;;;;11.29;71.06;101341.56;4992306;28;20462;-63
2021/04/13 01:31:46;;;;;;;0.77;0.45;;;;;;;11.28;71.00;101348.56;4992357;28;20061;-63
2021/04/13 01:34:22;;;;;;;0.43;0.30;;;;;;;11.32;70.98;101351.06;4991278;28;20097;-64
2021/04/13 01:37:55;;;;;;;2.83;0.50;;;;;;;11.33;70.94;101350.97;4992205;28;20101;-63
2021/04/13 01:40:23;;;;;;;0.73;0.40;;;;;;;11.35;70.96;101354.38;4993808;28;20050;-65
2021/04/13 01:42:51;;;;;;;0.80;0.47;;;;;;;11.37;71.07;101349.03;4992356;28;20063;-64
2021/04/13 01:45:23;;;;;;;1.75;0.47;;;;;;;11.36;71.04;101347.34;4991485;28;20143;-65
2021/04/13 01:47:51;;;;;;;0.85;0.40;;;;;;;11.34;71.10;101346.56;4992418;28;20043;-67
2021/04/13 01:50:20;;;;;;;0.50;0.32;;;;;;;11.32;71.17;101338.75;4992097;28;20407;-63
2021/04/13 01:52:49;;;;;;;1.25;0.60;;;;;;;11.31;71.16;101341.47;4992153;28;20054;-63
2021/04/13 01:55:23;;;;;;;0.52;0.35;;;;;;;11.31;71.19;101338.84;4992100;28;20113;-63
2021/04/13 01:58:11;;;;;;;1.80;0.50;;;;;;;11.30;71.20;101345.00;4992798;28;20047;-63
2021/04/13 02:00:46;;;;;;;1.42;0.52;;;;;;;11.28;71.23;101345.09;4995200;28;20105;-63
2021/04/13 02:03:29;;;;;;;1.13;0.60;;;;;;;11.28;71.24;101345.94;4995346;28;20100;-64
2021/04/13 02:06:04;;;;;;;1.02;0.60;;;;;;;11.29;71.40;101346.81;4995730;28;20112;-63
2021/04/13 02:08:39;;;;;;;1.63;0.70;;;;;;;11.30;71.49;101348.50;4995350;28;20042;-65
2021/04/13 02:11:12;;;;;;;1.60;0.80;;;;;;;11.30;71.46;101345.88;4995509;28;20050;-63
2021/04/13 02:13:51;;;;;;;3.50;0.73;;;;;;;11.28;71.27;101350.34;4995411;28;20046;-63
2021/04/13 02:16:24;;;;;;;0.60;0.60;;;;;;;11.30;71.19;101348.50;4992746;28;20101;-65
2021/04/13 02:18:53;;;;;;;0.93;0.50;;;;;;;11.30;71.38;101358.16;4981768;28;20100;-63
2021/04/13 02:21:43;;;;;;;1.13;0.80;;;;;;;11.28;71.34;101355.59;4995271;28;20049;-63
2021/04/13 02:24:13;;;;;;;1.15;0.70;;;;;;;11.24;71.50;101357.53;4994600;28;20050;-63
2021/04/13 02:26:49;;;;;;;0.93;0.70;;;;;;;11.25;71.67;101361.03;4995203;28;20050;-63
2021/04/13 02:29:18;;;;;;;1.08;0.60;;;;;;;11.24;71.75;101360.16;4995046;28;20542;-66
2021/04/13 02:31:52;;;;;;;1.23;0.70;;;;;;;11.23;71.51;101363.72;4995077;28;20046;-63
2021/04/13 02:34:23;;;;;;;1.33;0.80;;;;;;;11.21;71.89;101368.22;4994081;28;20042;-64
2021/04/13 02:36:54;;;;;;;0.82;0.68;;;;;;;11.21;72.04;101373.47;4994935;28;20054;-63
2021/04/13 02:39:23;;;;;;;2.10;0.70;;;;;;;11.18;72.03;101370.97;4994628;28;20046;-63
2021/04/13 02:41:55;;;;;;;1.15;0.88;;;;;;;11.09;71.93;101371.44;4994916;28;20050;-63
2021/04/13 02:44:24;;;;;;;1.83;0.93;;;;;;;11.03;71.99;101369.09;4994818;28;20042;-63
2021/04/13 02:46:54;;;;;;;2.55;0.98;;;;;;;11.00;72.25;101370.09;4994996;28;20047;-64
2021/04/13 02:49:22;;;;;;;1.13;1.00;;;;;;;10.97;72.20;101378.13;4993516;28;20042;-63
2021/04/13 02:51:55;;;;;;;1.88;1.00;;;;;;;10.98;72.39;101386.84;4994926;28;20073;-64
2021/04/13 02:54:25;;;;;;;2.25;0.90;;;;;;;10.95;72.29;101388.69;4994251;28;20053;-63
2021/04/13 02:56:58;;;;;;;1.45;1.02;;;;;;;10.92;72.07;101388.84;4994774;28;20105;-63
2021/04/13 02:59:26;;;;;;;1.80;1.00;;;;;;;10.88;72.04;101389.06;4994312;28;20128;-63
2021/04/13 03:02:20;;;;;;;1.08;0.82;;;;;;;10.86;72.14;101397.00;4993404;28;20050;-63
2021/04/13 03:04:51;;;;;;;1.45;0.93;;;;;;;10.81;71.81;101404.25;4986538;28;20112;-63
2021/04/13 03:07:21;;;;;;;1.10;0.80;;;;;;;10.75;71.79;101399.28;4990837;28;20042;-63
2021/04/13 03:09:54;;;;;;;1.20;1.00;;;;;;;10.70;71.68;101417.03;4990278;28;20084;-63
2021/04/13 03:12:21;;;;;;;1.10;1.00;;;;;;;10.67;71.64;101422.44;4990843;28;20042;-64
2021/04/13 03:14:55;;;;;;;1.75;0.75;;;;;;;10.64;71.62;101419.94;4990784;28;20046;-64
2021/04/13 03:17:26;;;;;;;2.38;0.88;;;;;;;10.64;71.63;101433.06;4991073;28;20042;-63
2021/04/13 03:20:00;;;;;;;1.35;0.90;;;;;;;10.66;71.63;101431.22;4990634;28;20133;-63
2021/04/13 03:22:27;;;;;;;0.70;0.70;;;;;;;10.66;71.50;101425.97;4988372;28;20059;-63
2021/04/13 03:24:56;;;;;;;0.93;0.70;;;;;;;10.64;71.54;101427.81;4990774;28;20113;-63
2021/04/13 03:27:27;;;;;;;1.10;0.95;;;;;;;10.58;71.65;101432.41;4984461;28;20092;-65
2021/04/13 03:30:05;;;;;;;1.58;0.95;;;;;;;10.51;71.82;101432.78;4990609;28;20073;-63
2021/04/13 03:32:58;;;;;;;0.80;0.80;;;;;;;10.51;72.08;101438.84;4984974;28;20042;-63
2021/04/13 03:35:27;;;;;;;1.08;0.80;;;;;;;10.49;72.16;101438.09;4987946;28;20054;-65
2021/04/13 03:37:58;;;;;;;1.60;0.90;;;;;;;10.52;72.28;101439.72;4990330;28;20418;-63
2021/04/13 03:40:29;;;;;;;1.05;0.93;;;;;;;10.52;72.21;101426.59;4989648;28;20060;-63
2021/04/13 03:43:00;;;;;;;1.25;0.98;;;;;;;10.52;72.05;101437.09;4990189;28;20054;-63
2021/04/13 03:45:29;;;;;;;1.30;1.20;;;;;;;10.52;71.98;101440.56;4990206;28;20546;-63
2021/04/13 03:47:56;;;;;;;0.90;0.90;;;;;;;10.55;72.10;101440.44;4990504;28;20042;-63
2021/04/13 03:50:28;;;;;;;1.17;1.08;;;;;;;10.60;72.19;101440.22;4990226;28;20050;-63
2021/04/13 03:53:13;;;;;;;1.33;1.00;;;;;;;10.64;72.12;101447.06;4990292;28;20070;-63
2021/04/13 03:55:40;;;;;;;1.20;1.10;;;;;;;10.65;72.17;101442.63;4989797;28;20097;-63
2021/04/13 03:58:23;;;;;;;1.00;0.90;;;;;;;10.66;72.06;101441.72;4990009;28;20104;-63
2021/04/13 04:00:52;;;;;;;1.25;1.15;;;;;;;10.67;71.97;101438.19;4990234;28;20046;-63
2021/04/13 04:03:19;;;;;;;1.42;1.33;;;;;;;10.69;72.00;101450.31;4989778;28;20058;-63
2021/04/13 04:05:56;;;;;;;1.90;1.15;;;;;;;10.69;71.69;101449.44;4990216;28;20493;-63
2021/04/13 04:08:37;;;;;;;2.42;1.38;;;;;;;10.67;71.94;101439.03;4989967;28;20042;-63
2021/04/13 04:11:04;;;;;;;1.90;1.40;;;;;;;10.59;72.07;101447.25;4989550;28;20423;-63
2021/04/13 04:13:45;;;;;;;6.90;1.40;;;;;;;10.53;72.09;101444.91;4989818;28;20046;-63
2021/04/13 04:16:17;;;;;;;1.48;1.38;;;;;;;10.52;72.41;101452.84;4989794;28;20562;-64
2021/04/13 04:18:50;;;;;;;1.45;1.35;;;;;;;10.52;72.61;101445.81;4989542;28;20054;-63
2021/04/13 04:21:30;;;;;;;1.50;1.23;;;;;;;10.54;72.59;101448.38;4988872;28;20050;-63
2021/04/13 04:24:01;;;;;;;1.38;1.27;;;;;;;10.52;72.68;101455.47;4989389;28;20062;-64
2021/04/13 04:26:33;;;;;;;1.40;1.30;;;;;;;10.51;72.54;101459.84;4989371;28;20046;-63
2021/04/13 04:29:33;;;;;;;1.60;1.50;;;;;;;10.50;72.72;101468.66;4988943;28;20057;-63
2021/04/13 04:32:35;;;;;;;1.40;1.30;;;;;;;10.52;72.71;101473.84;4989630;28;20105;-64
2021/04/13 04:35:07;;;;;;;2.17;1.40;;;;;;;10.53;72.69;101478.19;4989719;28;20050;-66
2021/04/13 04:37:36;;;;;;;1.50;1.40;;;;;;;10.55;72.83;101481.56;4989703;28;20120;-63
2021/04/13 04:40:29;;;;;;;1.60;1.50;;;;;;;10.55;72.73;101492.94;4989372;28;20053;-62
2021/04/13 04:43:01;;;;;;;2.17;1.27;;;;;;;10.56;72.95;101496.41;4988397;28;20459;-63
2021/04/13 04:45:35;;;;;;;2.33;1.80;;;;;;;10.58;72.81;101492.78;4988835;28;20051;-63
2021/04/13 04:48:23;;;;;;;2.13;1.75;;;;;;;10.58;72.97;101487.53;4989534;28;20498;-63
2021/04/13 04:50:52;;;;;;;2.35;2.13;;;;;;;10.57;73.11;101482.34;4983276;28;20101;-63
2021/04/13 04:53:19;;;;;;;2.10;1.90;;;;;;;10.51;73.26;101478.22;4989098;28;20042;-63
2021/04/13 04:55:53;;;;;;;4.28;2.17;;;;;;;10.44;73.21;101471.56;4989215;28;20046;-63
2021/04/13 04:58:21;;;;;;;2.33;1.80;;;;;;;10.40;73.67;101480.50;4979260;28;20046;-62
2021/04/13 05:00:48;;;;;;;3.05;1.90;;;;;;;10.42;73.97;101476.00;4975871;28;20049;-65
2021/04/13 05:03:15;;;;;;;2.00;1.80;;;;;;;10.42;73.67;101476.88;5001451;28;20065;-65
2021/04/13 05:05:42;;;;;;;2.85;1.80;;;;;;;10.41;73.94;101480.41;4989082;28;20125;-66
2021/04/13 05:08:08;;;;;;;2.97;1.80;;;;;;;10.47;74.20;101484.53;4988883;28;20050;-66
2021/04/13 05:10:34;;;;;;;10.88;2.47;;;;;;;10.51;74.08;101483.47;4989342;28;20046;-65
2021/04/13 05:13:01;;;;;;;2.10;1.90;;;;;;;10.55;73.88;101490.31;4983679;28;20400;-68
2021/04/13 05:15:27;;;;;;;1.77;1.63;;;;;;;10.59;73.84;101491.03;4988971;28;20042;-67
2021/04/13 05:17:53;;;;;;;2.20;1.98;;;;;;;10.64;73.95;101498.69;4988962;28;20057;-66
2021/04/13 05:20:19;;;;;;;1.75;1.55;;;;;;;10.65;73.69;101495.97;4988071;28;20565;-68
2021/04/13 05:22:46;;;;;;;1.33;1.23;;;;;;;10.66;73.56;101499.47;4988991;28;20050;-65
2021/04/13 05:25:13;;;;;;;2.00;1.67;;;;;;;10.61;73.55;101499.66;4988928;28;20101;-65
2021/04/13 05:27:39;;;;;;;2.35;1.35;;;;;;;10.58;73.63;101507.69;4988902;28;20054;-68
2021/04/13 05:30:07;;;;;;;1.70;1.40;;;;;;;10.53;73.73;101515.75;4988935;28;20122;-66
2021/04/13 05:32:33;;;;;;;1.60;1.20;;;;;;;10.53;73.88;101525.41;4987960;28;20112;-68
2021/04/13 05:34:59;;;;;;;1.50;1.30;;;;;;;10.52;74.03;101531.56;4992520;28;20055;-65
2021/04/13 05:37:28;;;;;;;1.48;1.02;;;;;;;10.51;74.05;101533.31;4985675;28;20074;-66
2021/04/13 05:39:56;;;;;;;1.55;1.33;;;;;;;10.55;73.79;101544.53;4992115;28;20046;-63
2021/04/13 05:42:27;;;;;;;1.20;1.02;;;;;;;10.57;73.88;101537.47;4992308;28;20104;-64
2021/04/13 05:44:57;;;;;;;0.90;0.88;;;;;;;10.59;74.07;101539.09;4992375;28;20097;-64
2021/04/13 05:47:26;;;;;;;1.25;1.15;;;;;;;10.62;73.86;101544.22;4992649;28;20046;-65
2021/04/13 05:49:52;;;;;;;1.40;0.77;;;;;;;10.64;73.89;101544.16;4992506;28;20058;-67
2021/04/13 05:52:18;;;;;;;21.38;3.10;;;;;;;10.67;73.86;101548.44;4989777;28;20046;-68
2021/04/13 05:54:44;;;;;;;1.77;0.73;;;;;;;10.80;74.91;101543.47;4988457;28;20097;-65
2021/04/13 05:57:14;;;;;;;1.00;0.90;;;;;;;10.82;74.60;101541.63;4981558;28;20081;-65
2021/04/13 05:59:43;;;;;;;1.40;0.95;;;;;;;10.81;74.37;101551.28;4990578;28;20108;-65
2021/04/13 06:02:13;;;;;;;1.05;0.80;;;;;;;10.77;73.76;101550.56;4977189;28;20046;-64
2021/04/13 06:04:40;;;;;;;1.80;0.85;;;;;;;10.68;73.65;101550.09;4991986;28;20050;-64
2021/04/13 06:07:06;;;;;;;1.27;0.95;;;;;;;10.60;73.58;101553.06;4991768;28;20121;-64
2021/04/13 06:09:32;;;;;;;0.73;0.60;;;;;;;10.54;73.63;101548.97;4989304;28;20046;-64
2021/04/13 06:11:59;;;;;;;1.15;0.68;;;;;;;10.52;73.50;101552.56;4991779;28;20189;-64
2021/04/13 06:14:27;;;;;;;1.50;0.70;;;;;;;10.49;73.27;101555.31;4992091;28;20042;-64
2021/04/13 06:16:54;;;;;;;1.20;0.70;;;;;;;10.49;73.13;101566.69;4991783;28;20073;-64
2021/04/13 06:19:20;;;;;;;2.63;0.75;;;;;;;10.45;72.96;101565.09;4991508;28;20056;-65
2021/04/13 06:21:48;;;;;;;1.00;0.90;;;;;;;10.49;72.84;101568.44;4984581;28;20418;-64
2021/04/13 06:24:14;;;;;;;0.50;0.50;;;;;;;10.47;72.07;101572.91;4991561;28;20050;-65
2021/04/13 06:26:45;;;;;;;0.95;0.70;;;;;;;10.44;71.97;101577.34;4988245;28;20046;-64
2021/04/13 06:29:23;;;;;;;1.73;0.90;;;;;;;10.47;71.88;101579.00;4990149;28;20050;-64
2021/04/13 06:31:49;;;;;;;1.67;0.68;;;;;;;10.50;71.72;101583.25;4991141;28;20108;-64
2021/04/13 06:34:16;;;;;;;1.35;0.70;;;;;;;10.52;71.53;101581.44;4991663;28;20043;-67
2021/04/13 06:36:42;;;;;;;1.20;0.90;;;;;;;10.54;71.30;101580.44;4991417;28;20105;-67
2021/04/13 06:39:10;;;;;;;1.00;0.63;;;;;;;10.59;71.07;101588.13;4990580;28;20545;-65
2021/04/13 06:42:26;;;;;;;1.67;1.05;;;;;;;10.63;70.74;101584.44;4986821;28;20046;-63
2021/04/13 06:45:08;;;;;;;1.10;0.80;;;;;;;10.66;70.37;101588.72;4943827;28;20051;-63
2021/04/13 06:47:48;;;;;;;0.88;0.60;;;;;;;10.67;69.95;101598.31;4957992;28;20050;-63
2021/04/13 06:50:23;;;;;;;1.67;0.80;;;;;;;10.69;69.60;101597.31;4980981;28;20116;-64
2021/04/13 06:53:18;;;;;;;0.70;0.60;;;;;;;10.68;69.15;101597.34;4991217;28;20402;-63
2021/04/13 06:56:04;;;;;;;2.13;0.60;;;;;;;10.68;68.76;101594.72;4991395;28;20042;-65
2021/04/13 06:58:48;;;;;;;3.92;0.82;;;;;;;10.66;68.44;101600.06;4978101;28;20039;-66
2021/04/13 07:01:29;;;;;;;1.17;0.98;;;;;;;10.69;68.12;101601.69;4974298;28;20076;-66
2021/04/13 07:04:05;;;;;;;2.25;1.35;;;;;;;10.74;67.79;101602.34;4980252;28;20105;-63
2021/04/13 07:06:46;;;;;;;1.55;1.10;;;;;;;10.77;67.47;101604.84;4983058;28;20047;-63
2021/04/13 07:09:16;;;;;;;3.42;1.13;;;;;;;10.83;67.12;101606.34;4978643;28;20050;-63
2021/04/13 07:12:07;;;;;;;7.13;6.28;;;;;;;10.89;66.87;101616.59;4977099;28;20042;-63
2021/04/13 07:14:49;;;;;;;2.35;1.10;;;;;;;10.92;66.85;101617.31;4989403;28;20053;-64
2021/04/13 07:17:22;;;;;;;0.60;0.60;;;;;;;10.97;66.76;101621.50;4986760;28;20057;-64
2021/04/13 07:20:01;;;;;;;1.30;0.65;;;;;;;11.01;67.04;101628.31;4990044;28;20112;-67
2021/04/13 07:22:35;;;;;;;6.25;2.33;;;;;;;11.04;66.84;101633.44;4990202;28;20104;-69
2021/04/13 07:25:12;;;;;;;6.80;2.70;;;;;;;11.08;66.84;101629.75;4985748;28;20138;-66
2021/04/13 07:27:51;;;;;;;6.88;3.53;;;;;;;11.09;66.52;101637.56;4990499;28;20054;-64
2021/04/13 07:30:18;;;;;;;2.55;2.08;;;;;;;11.15;66.58;101649.56;4986643;28;20050;-64
2021/04/13 07:32:45;;;;;;;2.13;1.00;;;;;;;11.18;66.20;101649.44;4983123;28;20384;-65
2021/04/13 07:35:17;;;;;;;1.25;0.90;;;;;;;11.21;66.14;101651.06;4990180;28;20050;-65
2021/04/13 07:37:46;;;;;;;1.25;0.77;;;;;;;11.24;65.95;101646.53;4990099;28;20101;-64
2021/04/13 07:40:29;;;;;;;1.23;0.70;;;;;;;11.27;66.02;101649.03;4990026;28;20050;-66
2021/04/13 07:43:12;;;;;;;1.08;0.98;;;;;;;11.30;66.05;101652.44;4990492;28;20069;-65
2021/04/13 07:45:52;;;;;;;0.95;0.80;;;;;;;11.28;66.01;101660.38;4990016;28;20061;-65
2021/04/13 07:48:36;;;;;;;3.33;1.00;;;;;;;11.22;66.11;101661.53;4990024;28;20112;-64
2021/04/13 07:51:02;;;;;;;1.02;0.80;;;;;;;11.22;66.05;101658.91;4976518;28;20483;-64
2021/04/13 07:53:42;;;;;;;1.25;1.00;;;;;;;11.20;65.88;101667.75;4989860;28;20043;-63
2021/04/13 07:56:21;;;;;;;1.73;0.98;;;;;;;11.16;65.82;101661.81;4989804;28;20054;-65
2021/04/13 07:59:03;;;;;;;1.77;0.90;;;;;;;11.17;65.83;101667.91;4989654;28;20058;-64
2021/04/13 08:01:29;;;;;;;6.90;1.70;;;;;;;11.19;65.83;101672.16;4989618;28;20458;-64
2021/04/13 08:03:56;;;;;;;2.13;1.42;;;;;;;11.20;65.60;101679.13;4990077;28;20054;-64
2021/04/13 08:06:28;;;;;;;1.85;0.88;;;;;;;11.21;65.53;101686.09;4988478;28;20097;-66
2021/04/13 08:09:23;;;;;;;0.95;0.75;;;;;;;11.24;65.49;101690.34;4978359;28;20526;-67
2021/04/13 08:12:12;;;;;;;1.80;0.90;;;;;;;11.26;65.49;101697.25;4988451;28;20060;-64
2021/04/13 08:14:43;;;;;;;1.58;0.80;;;;;;;11.28;65.99;101698.00;4989113;28;20046;-64
2021/04/13 08:17:30;;;;;;;1.33;0.70;;;;;;;11.33;66.48;101702.25;5004830;28;20039;-63
2021/04/13 08:19:58;;;;;;;;;;;;;;;11.31;66.94;101699.66;4989635;28;20464;-64
2021/04/13 08:22:24;;;;;;;0.57;0.57;;;;;;;11.37;67.24;101709.06;4989231;28;19929;-64
2021/04/13 08:24:55;;;;;;;1.02;0.73;;;;;;;11.39;67.61;101710.69;4983179;28;20046;-63
2021/04/13 08:27:36;;;;;;;0.85;0.77;;;;;;;11.38;67.45;101706.34;4989534;28;20047;-63
2021/04/13 08:30:17;;;;;;;1.55;0.80;;;;;;;11.40;67.51;101717.66;4986807;28;20129;-63
2021/04/13 08:33:02;;;;;;;0.90;0.70;;;;;;;11.44;67.32;101723.63;4989560;28;20097;-63
2021/04/13 08:35:38;;;;;;;0.82;0.50;;;;;;;11.42;67.13;101725.47;4989647;28;20061;-64
2021/04/13 08:38:29;;;;;;;1.20;0.85;;;;;;;11.47;66.72;101733.16;4988936;28;20062;-63
2021/04/13 08:41:17;;;;;;;2.92;0.75;;;;;;;11.49;66.39;101734.81;4975643;28;20062;-63
2021/04/13 08:43:46;;;;;;;0.93;0.60;;;;;;;11.52;65.68;101736.44;4989422;28;20117;-64
2021/04/13 08:46:27;;;;;;;1.35;0.60;;;;;;;11.55;65.14;101746.81;4988987;28;20514;-64
2021/04/13 08:49:00;;;;;;;1.02;0.80;;;;;;;11.56;64.59;101751.16;4989052;28;20504;-64
2021/04/13 08:51:43;;;;;;;1.75;0.50;;;;;;;11.58;64.82;101752.78;4989005;28;20058;-64
2021/04/13 08:54:32;;;;;;;0.68;0.40;;;;;;;11.55;64.89;101768.69;4988670;28;20514;-64
2021/04/13 08:57:17;;;;;;;1.40;0.60;;;;;;;11.55;64.77;101763.44;4988446;28;20055;-64
2021/04/13 08:59:50;;;;;;;1.45;0.50;;;;;;;11.54;64.51;101771.38;4988621;28;20054;-64
2021/04/13 09:02:24;;;;;;;2.35;0.50;;;;;;;11.53;64.07;101765.28;4988969;28;20061;-64
2021/04/13 09:05:04;;;;;;;0.85;0.70;;;;;;;11.54;64.53;101771.38;4989528;28;20123;-64
2021/04/13 09:07:52;;;;;;;0.63;0.50;;;;;;;11.54;64.73;101772.25;4989746;28;20046;-64
2021/04/13 09:10:28;;;;;;;1.58;0.70;;;;;;;11.54;65.17;101777.50;4992809;28;20466;-63
2021/04/13 09:13:21;;;;;;;1.00;0.90;;;;;;;11.46;65.73;101795.38;4982254;28;20105;-64
2021/04/13 09:16:03;;;;;;;0.95;0.95;;;;;;;11.34;66.02;101793.25;4983586;28;20061;-63
2021/04/13 09:18:38;;;;;;;1.50;1.02;;;;;;;11.26;66.09;101790.97;4992722;28;20427;-63
2021/04/13 09:21:16;;;;;;;2.80;1.10;;;;;;;11.24;66.13;101791.03;4992333;28;20064;-64
2021/04/13 09:24:19;;;;;;;1.35;1.10;;;;;;;11.29;66.42;101798.75;4988786;28;20058;-64
2021/04/13 09:26:57;;;;;;;1.30;1.20;;;;;;;11.33;66.40;101800.31;4969604;28;20105;-64
2021/04/13 09:29:44;;;;;;;2.55;1.95;;;;;;;11.34;66.35;101807.28;4975360;28;20043;-64
2021/04/13 09:32:22;;;;;;;3.53;3.00;;;;;;;11.35;66.12;101808.13;4978880;28;20057;-64
2021/04/13 09:35:42;;;;;;;3.03;2.72;;;;;;;11.35;66.21;101819.50;4982576;28;20420;-64
2021/04/13 09:38:17;;;;;;;2.63;1.90;;;;;;;11.31;66.17;101823.16;4969011;28;20114;-64
2021/04/13 09:41:23;;;;;;;3.00;2.23;;;;;;;11.30;66.49;101828.47;4969432;28;20269;-64
2021/04/13 09:44:04;;;;;;;3.78;2.30;;;;;;;11.32;66.64;101826.66;4981237;28;20136;-64
2021/04/13 09:46:53;;;;;;;2.05;1.58;;;;;;;11.35;66.79;101827.38;4986954;28;20050;-64
2021/04/13 09:49:34;;;;;;;3.47;2.08;;;;;;;11.35;66.74;101834.41;4991385;28;20050;-63
2021/04/13 09:52:19;;;;;;;2.40;2.20;;;;;;;11.34;66.63;101833.56;4991966;28;20129;-65
2021/04/13 09:55:00;;;;;;;3.35;2.58;;;;;;;11.37;66.65;101837.81;4991536;28;20520;-64
2021/04/13 09:58:02;;;;;;;3.10;2.00;;;;;;;11.39;66.56;101825.50;4992105;28;20055;-64
2021/04/13 10:00:50;;;;;;;1.70;1.40;;;;;;;11.46;66.56;101834.78;4995620;28;20096;-64
2021/04/13 10:03:38;;;;;;;1.30;1.20;;;;;;;11.52;66.48;101837.16;4980235;28;20385;-64
2021/04/13 10:06:10;;;;;;;2.15;1.27;;;;;;;11.55;66.54;101839.69;4971972;28;20118;-64
2021/04/13 10:08:42;;;;;;;1.38;1.27;;;;;;;11.55;66.50;101834.41;4973820;28;20121;-64
2021/04/13 10:11:08;;;;;;;0.80;0.80;;;;;;;11.52;66.34;101847.69;4977352;28;20059;-64
2021/04/13 10:14:06;;;;;;;0.85;0.85;;;;;;;11.48;66.16;101837.34;4974779;28;20050;-64
2021/04/13 10:16:46;;;;;;;0.93;0.80;;;;;;;11.37;65.83;101833.41;4982259;28;20408;-64
2021/04/13 10:19:33;;;;;;;0.57;0.57;;;;;;;11.33;65.42;101842.34;4981985;28;20051;-64
2021/04/13 10:22:18;;;;;;;2.05;0.73;;;;;;;11.33;65.50;101834.47;4975629;28;20578;-65
2021/04/13 10:25:04;;;;;;;2.33;0.60;;;;;;;11.34;65.40;101835.31;4980185;28;20105;-65
2021/04/13 10:28:10;;;;;;;0.98;0.70;;;;;;;11.34;65.29;101844.06;4988968;28;20645;-63
2021/04/13 10:31:20;;;;;;;1.02;0.65;;;;;;;11.35;65.38;101840.53;4977925;28;20043;-64
2021/04/13 10:34:16;;;;;;;1.52;1.00;;;;;;;11.34;65.62;101843.19;4991183;28;20058;-63
2021/04/13 10:37:07;;;;;;;1.65;0.90;;;;;;;11.35;65.80;101844.91;4988453;28;20061;-64
2021/04/13 10:39:40;;;;;;;1.55;1.20;;;;;;;11.35;66.21;101852.78;4973180;28;20459;-64
2021/04/13 10:42:41;;;;;;;1.27;0.73;;;;;;;11.32;66.01;101842.44;4976448;28;20503;-65
2021/04/13 10:45:16;;;;;;;4.38;2.35;;;;;;;11.27;66.00;101855.75;4977520;28;20050;-64
2021/04/13 10:48:15;;;;;;;27.27;18.23;;;;;;;11.24;65.98;101843.59;4983932;28;20144;-64
2021/04/13 10:51:24;;;;;;;5.15;3.30;;;;;;;11.24;65.94;101843.59;4989801;28;20286;-64
2021/04/13 10:54:28;;;;;;;7.50;4.35;;;;;;;11.22;65.99;101853.31;4980185;28;20047;-65
2021/04/13 10:57:48;;;;;;;5.32;3.40;;;;;;;11.20;65.91;101851.66;4989864;28;20050;-64
2021/04/13 11:00:18;;;;;;;1.50;1.30;;;;;;;11.13;66.04;101856.31;4930268;29;20114;-65
2021/04/13 11:02:47;;;;;;;2.40;1.60;;;;;;;11.09;66.46;101855.59;4979881;28;20049;-65
2021/04/13 11:05:32;;;;;;;1.90;1.80;;;;;;;11.06;67.02;101854.88;4990523;28;20112;-65
2021/04/13 11:08:40;;;;;;;2.08;1.63;;;;;;;10.97;67.25;101860.47;4990077;28;20487;-65
2021/04/13 11:11:18;;;;;;;4.43;1.75;;;;;;;11.28;69.25;101860.09;4982496;28;20141;-64
2021/04/13 11:14:22;;;;;;;6.05;4.43;;;;;;;11.41;69.47;101855.16;4982888;28;20096;-62
2021/04/13 11:17:23;;;;;;;6.63;5.07;;;;;;;11.38;69.07;101852.69;4980810;28;20058;-62
2021/04/13 11:20:16;;;;;;;1.98;1.30;;;;;;;11.30;68.64;101852.13;4984066;28;20050;-65
2021/04/13 11:22:48;;;;;;;1.52;1.33;;;;;;;11.21;68.39;101863.88;4973948;28;20094;-65
2021/04/13 11:25:58;;;;;;;5.15;3.65;;;;;;;11.13;68.03;101858.94;4978190;28;20054;-61
2021/04/13 11:28:46;;;;;;;3.55;1.83;;;;;;;11.10;67.26;101866.97;4980516;28;20046;-61
2021/04/13 11:31:12;;;;;;;1.73;1.42;;;;;;;11.13;66.97;101882.59;4988790;28;20104;-63
2021/04/13 11:34:34;;;;;;;2.28;1.35;;;;;;;11.16;67.05;101882.47;4990314;28;20054;-62
2021/04/13 11:37:06;;;;;;;1.20;0.70;;;;;;;11.19;66.96;101892.00;4948461;29;20044;-62
2021/04/13 11:39:51;;;;;;;1.13;1.00;;;;;;;11.18;66.93;101879.78;4948678;29;20039;-61
2021/04/13 11:42:30;;;;;;;1.85;1.00;;;;;;;11.20;66.74;101873.53;4980020;28;20051;-62
2021/04/13 11:45:14;;;;;;;1.15;0.82;;;;;;;11.14;66.88;101858.03;4988522;28;20082;-62
2021/04/13 11:48:08;;;;;;;1.67;0.75;;;;;;;10.99;67.76;101849.00;4975026;28;20120;-61
2021/04/13 11:50:54;;;;;;;1.33;1.00;;;;;;;10.89;68.57;101834.53;4988985;28;20056;-61
2021/04/13 11:53:35;;;;;;;2.85;1.08;;;;;;;10.85;69.00;101831.16;4989128;28;20050;-60
2021/04/13 11:56:04;;;;;;;0.98;0.85;;;;;;;10.84;69.02;101821.56;4988612;28;20137;-62
2021/04/13 11:58:34;;;;;;;1.83;1.08;;;;;;;10.86;69.39;101825.00;4989959;28;20105;-66
2021/04/13 12:01:12;;;;;;;1.83;1.30;;;;;;;10.84;69.75;101818.09;4978964;28;20109;-63
2021/04/13 12:03:41;;;;;;;1.00;0.90;;;;;;;10.83;70.21;101813.78;4973726;28;20113;-62
2021/04/13 12:06:12;;;;;;;0.93;0.80;;;;;;;10.87;70.31;101810.97;4982942;28;20159;-62
2021/04/13 12:08:41;;;;;;;1.00;0.88;;;;;;;10.93;70.55;101818.59;4984879;28;20126;-61
2021/04/13 12:11:17;;;;;;;1.10;1.00;;;;;;;11.01;70.76;101815.66;4989491;28;20112;-61
2021/04/13 12:13:50;;;;;;;1.08;0.93;;;;;;;11.08;70.89;101827.63;4984833;28;20050;-67